Time;durP1;ratioP1;P1;durP2;ratioP2;P2;SDS_P1;SDS_P2;PMS_P1;PMS_P2;Temp;Humidity;BMP_temperature;BMP_pressure;BME280_temperature;BME280_humidity;BME280_pressure;Samples;Min_cycle;Max_cycle;Signal;HPM_P1;HPM_P2
2023/05/23 00:00:44;;;;;;;10.28;5.17;;;;;;;15.94;63.61;100487.66;1772546;80;21426;-57
2023/05/23 00:03:51;;;;;;;6.22;4.70;;;;;;;15.92;63.77;100484.28;1771847;80;21327;-57
2023/05/23 00:06:58;;;;;;;7.53;5.10;;;;;;;15.90;63.90;100484.45;1772402;79;21355;-58
2023/05/23 00:10:04;;;;;;;10.53;5.53;;;;;;;15.85;63.90;100488.39;1771950;80;21374;-58
2023/05/23 00:13:11;;;;;;;9.83;4.97;;;;;;;15.81;64.00;100493.16;1771890;79;21358;-57
2023/05/23 00:16:17;;;;;;;14.53;5.70;;;;;;;15.78;64.08;100487.51;1769192;80;21212;-58
2023/05/23 00:19:22;;;;;;;8.88;4.83;;;;;;;15.72;64.09;100479.20;1770442;80;21196;-57
2023/05/23 00:22:29;;;;;;;6.47;4.95;;;;;;;15.66;64.16;100478.13;1770155;81;21703;-58
2023/05/23 00:25:33;;;;;;;8.95;5.30;;;;;;;15.63;64.31;100477.17;1770604;80;21743;-57
2023/05/23 00:28:40;;;;;;;7.83;4.85;;;;;;;15.59;64.37;100480.52;1770005;80;21243;-57
2023/05/23 00:31:46;;;;;;;6.97;5.03;;;;;;;15.58;64.46;100481.59;1770183;80;21374;-57
2023/05/23 00:34:53;;;;;;;6.62;4.72;;;;;;;15.53;64.48;100482.72;1770142;80;21819;-57
2023/05/23 00:37:58;;;;;;;9.98;5.17;;;;;;;15.49;64.53;100487.80;1770188;81;21745;-57
2023/05/23 00:41:04;;;;;;;10.05;5.62;;;;;;;15.46;64.62;100484.62;1770294;81;21705;-57
2023/05/23 00:44:09;;;;;;;13.60;5.78;;;;;;;15.44;64.79;100483.45;1770198;80;21197;-56
2023/05/23 00:47:16;;;;;;;8.73;5.85;;;;;;;15.44;64.83;100482.06;1770221;81;21204;-56
2023/05/23 00:50:23;;;;;;;11.48;5.75;;;;;;;15.42;64.93;100480.03;1770037;81;21220;-57
2023/05/23 00:53:30;;;;;;;11.97;6.37;;;;;;;15.40;65.00;100486.79;1770322;80;21714;-56
2023/05/23 00:56:35;;;;;;;12.55;6.40;;;;;;;15.36;65.01;100484.09;1770957;80;21224;-56
2023/05/23 00:59:41;;;;;;;11.10;6.35;;;;;;;15.31;65.10;100484.72;1770386;80;21346;-56
2023/05/23 01:02:54;;;;;;;11.78;6.62;;;;;;;15.27;65.11;100477.88;1770108;80;21175;-57
2023/05/23 01:06:01;;;;;;;9.05;6.20;;;;;;;15.25;65.24;100475.89;1770231;81;21255;-56
2023/05/23 01:09:08;;;;;;;9.20;6.28;;;;;;;15.23;65.35;100475.23;1770334;80;21200;-56
2023/05/23 01:12:47;;;;;;;13.13;6.65;;;;;;;15.23;65.36;100482.13;1770009;79;21231;-56
2023/05/23 01:16:17;;;;;;;15.45;7.47;;;;;;;15.17;65.34;100476.05;1768696;80;21262;-56
2023/05/23 01:19:57;;;;;;;11.75;6.70;;;;;;;15.12;65.41;100470.28;1770376;80;21204;-56
2023/05/23 01:23:32;;;;;;;11.83;6.97;;;;;;;15.11;65.56;100474.08;1769910;81;21729;-55
2023/05/23 01:26:58;;;;;;;;;;;;;;;15.12;65.73;100468.91;1772835;80;21220;-56
2023/05/23 01:30:07;;;;;;;9.85;5.00;;;;;;;15.11;65.83;100469.94;1719345;80;20277;-56
2023/05/23 01:33:13;;;;;;;8.98;5.78;;;;;;;15.09;65.86;100475.34;1770136;80;21216;-56
2023/05/23 01:36:19;;;;;;;7.90;6.05;;;;;;;15.08;65.91;100473.66;1770305;80;21244;-57
2023/05/23 01:39:25;;;;;;;9.93;5.78;;;;;;;15.07;65.95;100468.66;1763423;81;21259;-56
2023/05/23 01:42:31;;;;;;;11.10;5.83;;;;;;;15.08;66.01;100474.48;1770148;80;21374;-56
2023/05/23 01:45:37;;;;;;;7.42;5.40;;;;;;;15.08;66.05;100470.34;1770074;80;21196;-56
2023/05/23 01:48:43;;;;;;;9.93;5.42;;;;;;;15.08;66.10;100474.48;1770317;79;21906;-56
2023/05/23 01:51:50;;;;;;;9.40;6.28;;;;;;;15.08;66.15;100469.52;1770246;80;21196;-56
2023/05/23 01:54:58;;;;;;;7.97;5.83;;;;;;;15.09;66.25;100476.20;1770809;80;21840;-56
2023/05/23 01:58:04;;;;;;;11.20;5.97;;;;;;;15.06;66.18;100473.86;1770404;80;21188;-56
2023/05/23 02:01:10;;;;;;;8.83;5.55;;;;;;;14.99;66.13;100475.19;1770071;81;21760;-56
2023/05/23 02:04:17;;;;;;;12.90;5.87;;;;;;;14.96;66.15;100473.36;1770322;81;21216;-56
2023/05/23 02:07:22;;;;;;;14.50;6.10;;;;;;;14.95;66.25;100475.25;1770049;80;21732;-56
2023/05/23 02:10:28;;;;;;;13.03;5.90;;;;;;;14.93;66.28;100469.62;1770678;80;21205;-58
2023/05/23 02:13:34;;;;;;;14.28;7.15;;;;;;;14.88;66.30;100470.23;1770189;80;21852;-56
2023/05/23 02:16:40;;;;;;;9.58;6.33;;;;;;;14.84;66.36;100471.67;1770324;78;21200;-56
2023/05/23 02:19:46;;;;;;;8.53;6.25;;;;;;;14.80;66.41;100471.77;1736176;82;21262;-55
2023/05/23 02:22:55;;;;;;;12.60;6.15;;;;;;;14.81;66.53;100471.22;1736415;82;21211;-56
2023/05/23 02:26:01;;;;;;;12.78;7.12;;;;;;;14.81;66.61;100466.57;1736380;82;21168;-56
2023/05/23 02:29:07;;;;;;;12.23;5.95;;;;;;;14.83;66.69;100471.88;1736374;82;21195;-57
2023/05/23 02:32:13;;;;;;;11.97;6.30;;;;;;;14.85;66.76;100466.51;1736258;82;21255;-57
2023/05/23 02:35:20;;;;;;;9.88;6.55;;;;;;;14.89;66.84;100471.06;1736309;82;21278;-58
2023/05/23 02:38:26;;;;;;;8.10;5.55;;;;;;;14.94;66.89;100460.30;1736228;82;21566;-56
2023/05/23 02:41:34;;;;;;;9.88;6.10;;;;;;;14.98;66.94;100469.88;1736220;82;21207;-57
2023/05/23 02:44:40;;;;;;;8.98;5.90;;;;;;;15.02;66.97;100468.41;1736347;82;21235;-56
2023/05/23 02:47:47;;;;;;;8.20;5.50;;;;;;;15.06;67.07;100468.34;1736289;82;21227;-56
2023/05/23 02:50:54;;;;;;;11.05;6.20;;;;;;;15.14;67.15;100469.56;1736276;81;21219;-58
2023/05/23 02:54:01;;;;;;;10.48;6.28;;;;;;;15.19;67.13;100464.27;1736027;82;21187;-58
2023/05/23 02:57:07;;;;;;;14.23;6.15;;;;;;;15.23;67.06;100466.95;1736218;82;21697;-58
2023/05/23 03:00:16;;;;;;;9.13;5.92;;;;;;;15.23;67.03;100459.20;1736265;82;21215;-58
2023/05/23 03:03:22;;;;;;;9.60;6.20;;;;;;;15.25;67.06;100462.09;1736246;82;21219;-59
2023/05/23 03:06:32;;;;;;;9.95;6.20;;;;;;;15.32;67.19;100462.96;1736229;82;21675;-57
2023/05/23 03:09:39;;;;;;;12.20;6.50;;;;;;;15.40;67.28;100463.34;1736219;82;21267;-58
2023/05/23 03:12:44;;;;;;;12.53;8.78;;;;;;;15.47;67.23;100469.76;1718524;82;22248;-59
2023/05/23 03:15:52;;;;;;;11.68;7.33;;;;;;;15.53;67.28;100475.31;1736149;81;21207;-60
2023/05/23 03:18:58;;;;;;;8.95;6.17;;;;;;;15.58;67.27;100471.41;1752161;78;21208;-59
2023/05/23 03:22:05;;;;;;;11.05;6.47;;;;;;;15.59;67.21;100464.82;1769976;81;21191;-60
2023/05/23 03:25:14;;;;;;;11.28;6.80;;;;;;;15.65;67.30;100472.27;1770334;80;21258;-59
2023/05/23 03:28:20;;;;;;;14.23;6.78;;;;;;;15.71;67.33;100476.98;1769458;80;21181;-59
2023/05/23 03:31:27;;;;;;;11.25;6.17;;;;;;;15.74;67.25;100479.85;1739552;82;21457;-59
2023/05/23 03:34:32;;;;;;;11.10;6.47;;;;;;;15.77;67.28;100470.63;1738552;82;21351;-60
2023/05/23 03:37:38;;;;;;;11.78;6.10;;;;;;;15.82;67.37;100472.25;1739379;82;21390;-59
2023/05/23 03:40:46;;;;;;;11.18;6.10;;;;;;;15.91;67.50;100472.38;1739803;82;21350;-59
2023/05/23 03:43:52;;;;;;;15.75;6.90;;;;;;;15.96;67.49;100472.60;1740130;82;21998;-59
2023/05/23 03:46:58;;;;;;;11.88;6.65;;;;;;;16.05;67.61;100466.34;1739326;82;21378;-59
2023/05/23 03:50:05;;;;;;;11.40;6.80;;;;;;;16.11;67.56;100471.05;1739228;81;21891;-59
2023/05/23 03:53:11;;;;;;;12.43;6.97;;;;;;;16.16;67.60;100473.49;1753096;80;21326;-60
2023/05/23 03:56:18;;;;;;;15.88;6.35;;;;;;;16.23;67.55;100474.36;1774856;80;21190;-59
2023/05/23 03:59:24;;;;;;;10.70;6.67;;;;;;;16.28;67.56;100469.03;1787129;79;21902;-61
2023/05/23 04:02:33;;;;;;;11.57;6.92;;;;;;;16.35;67.59;100468.52;1787513;79;21347;-59
2023/05/23 04:05:42;;;;;;;12.28;6.60;;;;;;;16.44;67.67;100469.18;1793776;80;21713;-60
2023/05/23 04:08:50;;;;;;;14.40;6.60;;;;;;;16.56;67.71;100463.88;1786700;80;21199;-60
2023/05/23 04:11:51;;;;;;;9.98;6.62;;;;;;;16.68;67.78;100467.17;1739042;82;21552;-60
2023/05/23 04:14:47;;;;;;;10.90;6.30;;;;;;;16.85;67.93;100464.84;1739024;82;21410;-60
2023/05/23 04:17:32;;;;;;;9.35;6.25;;;;;;;16.97;67.85;100474.17;1739565;82;21280;-59
2023/05/23 04:20:25;;;;;;;;;;;;;;;17.08;67.82;100470.75;1741632;80;21722;-60
2023/05/23 04:23:29;;;;;;;8.28;5.60;;;;;;;17.20;67.77;100474.57;1739071;82;20339;-61
2023/05/23 04:26:35;;;;;;;12.35;6.05;;;;;;;17.31;67.75;100479.44;1739706;82;21856;-60
2023/05/23 04:29:43;;;;;;;9.03;6.08;;;;;;;17.42;67.62;100478.77;1739273;82;21204;-59
2023/05/23 04:32:50;;;;;;;11.03;6.20;;;;;;;17.53;67.62;100480.89;1739849;82;21336;-60
2023/05/23 04:35:56;;;;;;;13.60;6.37;;;;;;;17.60;67.50;100485.88;1745559;80;21358;-59
2023/05/23 04:39:04;;;;;;;10.75;6.22;;;;;;;17.70;67.51;100484.86;1737007;81;21277;-59
2023/05/23 04:42:12;;;;;;;11.83;5.60;;;;;;;17.82;67.44;100483.12;1784319;80;21353;-60
2023/05/23 04:45:21;;;;;;;11.35;5.47;;;;;;;17.89;67.36;100479.77;1774900;79;21871;-60
2023/05/23 04:48:30;;;;;;;9.78;5.50;;;;;;;18.00;67.40;100474.09;1780310;80;21205;-59
2023/05/23 04:51:34;;;;;;;15.80;5.97;;;;;;;18.14;67.42;100469.61;1749216;81;21198;-59
2023/05/23 04:54:43;;;;;;;12.78;5.53;;;;;;;18.25;67.25;100466.67;1763969;81;21206;-60
2023/05/23 04:57:49;;;;;;;10.82;5.60;;;;;;;18.31;67.13;100477.72;1756312;81;21567;-59
2023/05/23 05:00:55;;;;;;;10.50;6.10;;;;;;;18.37;66.98;100479.59;1759760;81;21174;-61
2023/05/23 05:04:01;;;;;;;10.68;5.95;;;;;;;18.46;66.99;100478.27;1767086;80;21766;-59
2023/05/23 05:07:08;;;;;;;18.82;6.08;;;;;;;18.53;66.88;100483.25;1749306;80;21722;-59
2023/05/23 05:10:16;;;;;;;14.40;5.67;;;;;;;18.61;66.91;100484.36;1764028;81;21213;-60
2023/05/23 05:13:24;;;;;;;10.85;5.72;;;;;;;18.66;66.82;100481.73;1761347;80;21801;-61
2023/05/23 05:16:30;;;;;;;10.03;5.35;;;;;;;18.71;66.82;100484.68;1764174;79;21252;-60
2023/05/23 05:19:37;;;;;;;8.98;5.80;;;;;;;18.79;66.73;100489.95;1728310;81;21200;-61
2023/05/23 05:22:43;;;;;;;9.03;5.12;;;;;;;18.81;66.64;100485.03;1711186;82;21708;-61
2023/05/23 05:25:50;;;;;;;15.08;6.05;;;;;;;18.86;66.58;100489.37;1718564;83;21244;-60
2023/05/23 05:28:55;;;;;;;9.25;6.15;;;;;;;18.84;66.51;100480.41;1730114;82;21201;-60
2023/05/23 05:32:02;;;;;;;9.35;5.00;;;;;;;18.94;66.75;100483.53;1730387;82;21286;-58
2023/05/23 05:35:07;;;;;;;9.58;4.97;;;;;;;19.05;66.65;100483.31;1716510;83;21352;-59
2023/05/23 05:38:13;;;;;;;9.48;5.15;;;;;;;19.09;66.58;100486.78;1768383;81;21721;-58
2023/05/23 05:41:21;;;;;;;8.13;4.67;;;;;;;19.21;66.60;100485.50;1733222;82;21199;-57
2023/05/23 05:44:26;;;;;;;9.30;5.53;;;;;;;19.33;66.58;100483.16;1725640;81;21236;-57
2023/05/23 05:47:32;;;;;;;12.07;6.47;;;;;;;19.44;66.41;100480.14;1718828;83;21443;-57
2023/05/23 05:50:38;;;;;;;10.60;5.85;;;;;;;19.54;66.26;100485.16;1734088;82;21768;-57
2023/05/23 05:53:44;;;;;;;12.85;6.37;;;;;;;19.55;66.00;100491.05;1733976;82;21333;-58
2023/05/23 05:56:49;;;;;;;12.55;5.83;;;;;;;19.58;66.04;100485.02;1714799;83;21411;-60
2023/05/23 05:59:55;;;;;;;9.28;5.12;;;;;;;19.64;66.05;100486.34;1697618;83;21208;-59
2023/05/23 06:03:03;;;;;;;13.00;5.10;;;;;;;19.74;66.13;100484.41;1718866;83;21288;-60
2023/05/23 06:06:11;;;;;;;14.18;5.35;;;;;;;19.84;66.17;100490.23;1708245;83;21221;-58
2023/05/23 06:09:18;;;;;;;10.20;5.22;;;;;;;19.92;66.06;100484.36;1731212;82;21192;-59
2023/05/23 06:12:26;;;;;;;9.43;5.20;;;;;;;19.97;65.86;100478.95;1718046;83;21355;-59
2023/05/23 06:15:28;;;;;;;11.75;4.50;;;;;;;19.99;65.67;100483.22;1703005;82;21227;-59
2023/05/23 06:18:36;;;;;;;9.73;4.35;;;;;;;20.02;65.65;100480.50;1700503;83;21372;-59
2023/05/23 06:21:45;;;;;;;7.25;4.28;;;;;;;20.04;65.55;100477.78;1766024;76;21738;-58
2023/05/23 06:24:52;;;;;;;9.10;5.10;;;;;;;20.12;65.50;100487.75;1760935;80;21916;-60
2023/05/23 06:28:00;;;;;;;11.18;4.30;;;;;;;20.17;65.37;100480.98;1760072;79;21201;-59
2023/05/23 06:31:08;;;;;;;14.30;4.30;;;;;;;20.23;65.30;100480.85;1750459;81;21213;-58
2023/05/23 06:34:17;;;;;;;12.80;4.53;;;;;;;20.25;65.09;100479.22;1767286;79;21251;-59
2023/05/23 06:37:24;;;;;;;16.42;4.90;;;;;;;20.25;64.97;100486.17;1744087;79;21362;-58
2023/05/23 06:40:31;;;;;;;11.57;4.40;;;;;;;20.22;64.89;100476.39;1762227;79;21216;-59
2023/05/23 06:43:38;;;;;;;7.78;3.85;;;;;;;20.27;65.02;100485.41;1767325;81;21379;-57
2023/05/23 06:46:56;;;;;;;9.28;3.77;;;;;;;20.31;65.05;100481.91;1768071;79;21248;-59
2023/05/23 06:49:58;;;;;;;8.00;4.33;;;;;;;20.30;64.76;100477.45;1765252;80;21216;-59
2023/05/23 06:53:06;;;;;;;8.05;3.62;;;;;;;20.28;64.71;100477.39;1749105;80;21201;-60
2023/05/23 06:56:11;;;;;;;11.73;3.62;;;;;;;20.30;64.64;100476.59;1741032;81;21271;-60
2023/05/23 06:59:20;;;;;;;3.87;3.05;;;;;;;20.37;64.57;100474.04;1733592;81;21254;-60
2023/05/23 07:02:25;;;;;;;8.70;3.05;;;;;;;20.50;64.65;100478.55;1747656;80;21196;-60
2023/05/23 07:05:33;;;;;;;8.40;2.95;;;;;;;20.61;64.43;100479.11;1764368;80;21298;-60
2023/05/23 07:08:43;;;;;;;9.70;3.70;;;;;;;20.67;64.14;100480.40;1768033;79;21245;-58
2023/05/23 07:11:49;;;;;;;7.70;3.40;;;;;;;20.79;64.24;100469.27;1769192;79;21193;-58
2023/05/23 07:14:55;;;;;;;12.03;3.85;;;;;;;20.94;64.34;100471.59;1766541;81;21425;-58
2023/05/23 07:18:07;;;;;;;7.20;3.80;;;;;;;21.03;64.19;100471.55;1754468;80;21339;-60
2023/05/23 07:21:20;;;;;;;9.05;3.70;;;;;;;21.10;64.14;100465.34;1760287;81;21813;-57
2023/05/23 07:24:26;;;;;;;10.60;3.25;;;;;;;21.21;64.09;100463.09;1712495;80;21250;-57
2023/05/23 07:27:37;;;;;;;26.73;21.55;;;;;;;21.24;63.79;100468.17;1764158;80;21184;-58
2023/05/23 07:30:43;;;;;;;8.15;4.62;;;;;;;21.22;63.59;100472.59;1761903;79;21341;-60
2023/05/23 07:33:49;;;;;;;14.40;4.53;;;;;;;21.24;63.55;100471.81;1766207;79;21761;-58
2023/05/23 07:36:56;;;;;;;38.60;7.67;;;;;;;21.24;63.47;100464.86;1768769;79;21189;-59
2023/05/23 07:40:04;;;;;;;13.85;4.40;;;;;;;21.24;63.42;100470.95;1747299;81;21208;-59
2023/05/23 07:43:16;;;;;;;8.53;3.77;;;;;;;21.19;63.26;100473.08;1777244;80;21212;-57
2023/05/23 07:46:24;;;;;;;9.38;3.90;;;;;;;21.18;63.35;100460.27;1744251;81;21241;-57
2023/05/23 07:49:31;;;;;;;9.75;4.30;;;;;;;21.18;63.36;100471.94;1770201;80;21765;-56
2023/05/23 07:52:37;;;;;;;9.35;4.60;;;;;;;21.16;63.29;100470.79;1766452;80;21243;-57
2023/05/23 07:55:46;;;;;;;9.20;4.37;;;;;;;21.16;63.20;100471.32;1773488;79;21193;-57
2023/05/23 07:58:57;;;;;;;6.95;3.95;;;;;;;21.20;63.22;100471.16;1754314;80;21208;-57
2023/05/23 08:02:05;;;;;;;5.47;3.65;;;;;;;21.25;63.10;100474.89;1757889;80;21775;-56
2023/05/23 08:05:13;;;;;;;8.53;3.90;;;;;;;21.35;63.21;100472.35;1766243;80;21224;-56
2023/05/23 08:08:20;;;;;;;7.53;3.42;;;;;;;21.45;63.18;100470.34;1766284;79;21717;-57
2023/05/23 08:11:29;;;;;;;7.47;3.83;;;;;;;21.52;63.05;100466.86;1732331;81;22041;-57
2023/05/23 08:14:38;;;;;;;24.72;19.85;;;;;;;21.65;63.11;100462.42;1771547;79;21367;-58
2023/05/23 08:17:55;;;;;;;10.82;5.67;;;;;;;21.82;63.06;100461.98;1770536;80;21676;-56
2023/05/23 08:21:02;;;;;;;7.17;3.70;;;;;;;21.94;62.79;100466.98;1771190;80;21350;-56
2023/05/23 08:24:08;;;;;;;8.75;3.85;;;;;;;21.82;62.34;100462.83;1765902;80;21235;-56
2023/05/23 08:27:14;;;;;;;7.67;4.42;;;;;;;21.83;62.62;100466.48;1767478;81;21232;-56
2023/05/23 08:30:24;;;;;;;9.23;4.47;;;;;;;21.90;62.70;100463.84;1741491;81;21202;-56
2023/05/23 08:33:32;;;;;;;9.25;4.55;;;;;;;21.95;62.49;100462.55;1764734;79;21729;-57
2023/05/23 08:36:41;;;;;;;10.38;5.72;;;;;;;21.98;62.51;100456.48;1763201;80;21191;-56
2023/05/23 08:39:48;;;;;;;8.53;4.22;;;;;;;22.05;62.52;100459.98;1765562;80;21181;-56
2023/05/23 08:43:02;;;;;;;6.95;4.12;;;;;;;22.09;62.41;100457.52;1758063;80;21209;-55
2023/05/23 08:46:09;;;;;;;6.62;4.03;;;;;;;22.09;62.46;100456.12;1732033;81;21722;-55
2023/05/23 08:49:16;;;;;;;12.68;4.55;;;;;;;22.12;62.36;100450.91;1739023;81;21829;-58
2023/05/23 08:52:28;;;;;;;7.37;3.92;;;;;;;22.21;62.41;100448.56;1764991;81;21371;-57
2023/05/23 08:55:38;;;;;;;6.55;3.67;;;;;;;22.27;62.31;100448.10;1761432;80;21247;-56
2023/05/23 08:58:47;;;;;;;11.65;4.05;;;;;;;22.37;62.17;100453.87;1759414;80;21220;-56
2023/05/23 09:01:55;;;;;;;7.75;3.87;;;;;;;22.37;61.96;100446.37;1759653;80;21200;-54
2023/05/23 09:05:04;;;;;;;9.13;3.47;;;;;;;22.46;61.90;100445.39;1774947;79;21431;-57
2023/05/23 09:08:19;;;;;;;10.88;3.75;;;;;;;22.57;61.77;100441.71;1768796;80;21351;-53
2023/05/23 09:11:28;;;;;;;6.35;3.35;;;;;;;22.70;61.72;100447.83;1773350;79;21212;-55
2023/05/23 09:14:44;;;;;;;4.65;2.72;;;;;;;22.86;61.73;100448.92;1772438;80;21904;-59
2023/05/23 09:17:56;;;;;;;6.92;3.17;;;;;;;22.87;61.25;100440.83;1738488;81;21364;-58
2023/05/23 09:21:04;;;;;;;5.58;2.75;;;;;;;22.85;61.11;100443.05;1776467;79;21839;-57
2023/05/23 09:24:12;;;;;;;8.83;3.10;;;;;;;22.90;61.13;100436.13;1786589;80;21357;-62
2023/05/23 09:27:20;;;;;;;11.35;3.33;;;;;;;22.99;61.13;100438.23;1717311;82;21391;-62
2023/05/23 09:30:27;;;;;;;7.10;3.08;;;;;;;23.13;61.07;100436.81;1714014;82;21345;-58
2023/05/23 09:33:47;;;;;;;6.58;4.00;;;;;;;23.19;60.79;100428.80;1706209;84;21262;-60
2023/05/23 09:36:55;;;;;;;10.32;4.35;;;;;;;23.32;60.89;100427.07;1735596;81;21203;-58
2023/05/23 09:40:06;;;;;;;7.50;4.10;;;;;;;23.35;60.44;100428.48;1715147;82;21507;-59
2023/05/23 09:43:15;;;;;;;7.47;4.30;;;;;;;23.28;60.23;100427.27;1736379;82;21321;-57
2023/05/23 09:46:22;;;;;;;5.75;3.25;;;;;;;23.29;60.27;100423.94;1736604;81;21257;-58
2023/05/23 09:49:28;;;;;;;8.95;6.45;;;;;;;23.34;60.37;100425.41;1736160;81;21244;-58
2023/05/23 09:52:37;;;;;;;8.10;3.80;;;;;;;23.21;59.92;100424.34;1735506;82;21274;-58
2023/05/23 09:55:43;;;;;;;6.72;3.05;;;;;;;23.04;59.93;100433.31;1734969;81;21835;-54
2023/05/23 09:58:49;;;;;;;6.45;4.10;;;;;;;23.17;60.51;100423.15;1722642;82;21223;-54
2023/05/23 10:01:57;;;;;;;6.60;3.47;;;;;;;23.40;60.61;100426.59;1727934;81;22013;-59
2023/05/23 10:05:03;;;;;;;6.60;3.58;;;;;;;23.56;60.39;100427.67;1718481;82;21791;-57
2023/05/23 10:08:17;;;;;;;6.55;3.98;;;;;;;23.63;60.15;100429.70;1719226;82;21258;-57
2023/05/23 10:11:42;;;;;;;8.88;3.12;;;;;;;23.63;59.83;100430.56;1734159;82;21188;-59
2023/05/23 10:14:50;;;;;;;7.25;3.30;;;;;;;23.38;59.43;100423.78;1734547;82;21223;-59
2023/05/23 10:18:20;;;;;;;7.25;3.90;;;;;;;23.31;59.77;100425.90;1727614;81;21211;-57
2023/05/23 10:21:44;;;;;;;12.37;4.33;;;;;;;23.46;59.94;100421.94;1729062;81;21208;-59
2023/05/23 10:24:52;;;;;;;7.80;3.33;;;;;;;23.57;59.83;100427.41;1730880;81;21200;-59
2023/05/23 10:28:05;;;;;;;10.85;5.83;;;;;;;23.71;59.76;100419.47;1760940;79;21205;-55
2023/05/23 10:31:11;;;;;;;11.43;4.12;;;;;;;23.72;59.49;100422.58;1733024;81;21317;-55
2023/05/23 10:34:48;;;;;;;6.00;3.90;;;;;;;23.67;59.24;100418.31;1733101;81;21318;-55
2023/05/23 10:38:17;;;;;;;5.22;3.50;;;;;;;23.57;59.08;100415.38;1722827;83;21473;-56
2023/05/23 10:41:40;;;;;;;8.93;3.33;;;;;;;23.54;59.37;100415.90;1734688;82;21197;-57
2023/05/23 10:44:51;;;;;;;6.22;3.05;;;;;;;23.54;59.21;100410.31;1729720;81;21325;-56
2023/05/23 10:48:03;;;;;;;9.93;3.40;;;;;;;23.46;59.07;100403.23;1786328;79;21334;-53
2023/05/23 10:51:19;;;;;;;9.88;3.00;;;;;;;23.44;59.04;100405.97;1786619;79;21350;-56
2023/05/23 10:54:33;;;;;;;9.25;4.47;;;;;;;23.25;58.70;100401.76;1753765;81;21272;-55
2023/05/23 10:57:43;;;;;;;6.92;3.50;;;;;;;23.25;58.70;100401.76;1752172;80;21201;-54
2023/05/23 11:01:05;;;;;;;6.53;3.25;;;;;;;23.22;58.93;100399.48;1758452;79;21185;-56
2023/05/23 11:04:12;;;;;;;6.33;2.95;;;;;;;23.36;59.03;100403.63;1745696;80;21216;-54
2023/05/23 11:07:39;;;;;;;4.75;2.85;;;;;;;23.51;59.07;100395.45;1761772;80;21208;-55
2023/05/23 11:11:10;;;;;;;6.97;2.87;;;;;;;23.61;58.99;100399.22;1769506;79;21200;-56
2023/05/23 11:14:32;;;;;;;5.87;3.20;;;;;;;23.77;59.01;100403.03;1743995;80;21808;-57
2023/05/23 11:18:30;;;;;;;6.92;3.20;;;;;;;23.85;58.86;100396.98;1763281;79;21200;-57
2023/05/23 11:21:37;;;;;;;5.87;2.90;;;;;;;23.94;58.79;100392.64;1765586;81;21725;-55
2023/05/23 11:25:01;;;;;;;7.80;3.00;;;;;;;23.92;58.75;100389.25;1755446;80;21476;-57
2023/05/23 11:28:10;;;;;;;8.38;3.85;;;;;;;23.97;58.50;100383.75;1752263;80;21212;-58
2023/05/23 11:31:21;;;;;;;9.85;3.60;;;;;;;24.06;58.45;100378.50;1762320;80;21223;-61
2023/05/23 11:34:37;;;;;;;9.10;3.37;;;;;;;24.21;58.59;100365.55;1759901;80;21209;-55
2023/05/23 11:37:49;;;;;;;6.62;3.67;;;;;;;24.37;58.65;100370.14;1759590;81;21571;-56
2023/05/23 11:40:56;;;;;;;6.55;3.50;;;;;;;24.52;58.51;100364.70;1755234;81;21192;-57
2023/05/23 11:44:02;;;;;;;6.70;3.80;;;;;;;24.70;58.53;100357.33;1732744;81;21757;-56
2023/05/23 11:47:12;;;;;;;11.93;10.10;;;;;;;24.86;58.24;100360.49;1717191;83;21214;-56
2023/05/23 11:50:23;;;;;;;4.97;3.83;;;;;;;25.08;58.20;100352.79;1689600;83;21224;-58
2023/05/23 11:53:29;;;;;;;6.20;3.20;;;;;;;25.32;58.05;100350.97;1715037;83;21647;-57
2023/05/23 11:56:35;;;;;;;5.45;3.20;;;;;;;25.35;57.71;100354.66;1726138;82;21863;-55
2023/05/23 11:59:41;;;;;;;6.12;3.08;;;;;;;25.45;57.69;100345.73;1716226;83;21301;-56
2023/05/23 12:02:50;;;;;;;9.58;3.95;;;;;;;25.59;57.60;100349.73;1757426;81;21197;-58
2023/05/23 12:05:56;;;;;;;4.92;3.00;;;;;;;25.59;57.18;100340.47;1749011;80;21199;-59
2023/05/23 12:09:03;;;;;;;6.15;3.20;;;;;;;25.44;56.89;100344.60;1730400;81;21235;-57
2023/05/23 12:12:09;;;;;;;5.92;3.15;;;;;;;25.35;56.72;100343.45;1681708;83;21213;-57
2023/05/23 12:15:16;;;;;;;10.38;3.42;;;;;;;25.36;56.96;100341.77;1715308;82;21316;-56
2023/05/23 12:18:23;;;;;;;5.00;2.83;;;;;;;25.50;57.04;100333.72;1707939;83;21245;-55
2023/05/23 12:21:30;;;;;;;6.87;3.67;;;;;;;25.58;56.87;100334.01;1704993;83;21226;-56
2023/05/23 12:24:38;;;;;;;6.80;3.98;;;;;;;25.61;56.49;100328.42;1687666;82;21186;-56
2023/05/23 12:27:48;;;;;;;9.10;3.50;;;;;;;25.51;56.24;100330.64;1776902;79;21809;-56
2023/05/23 12:30:54;;;;;;;7.22;3.10;;;;;;;25.51;56.38;100319.97;1762248;80;21181;-57
2023/05/23 12:34:01;;;;;;;7.92;2.87;;;;;;;25.44;56.24;100333.39;1737821;81;21185;-57
2023/05/23 12:37:09;;;;;;;7.40;2.70;;;;;;;25.07;55.87;100328.42;1723480;83;21204;-58
2023/05/23 12:40:23;;;;;;;6.17;2.75;;;;;;;24.66;55.81;100329.55;1712045;82;22226;-57
2023/05/23 12:43:37;;;;;;;5.33;2.90;;;;;;;24.33;56.07;100334.02;1764193;80;21189;-56
2023/05/23 12:46:44;;;;;;;5.95;2.47;;;;;;;24.15;56.22;100327.41;1732241;81;21572;-57
2023/05/23 12:49:50;;;;;;;5.80;2.40;;;;;;;24.10;56.31;100332.13;1753820;79;21800;-58
2023/05/23 12:52:56;;;;;;;7.90;2.55;;;;;;;24.05;56.20;100323.69;1748098;79;21176;-56
2023/05/23 12:56:05;;;;;;;5.28;2.52;;;;;;;23.84;56.12;100322.61;1784288;79;21304;-55
2023/05/23 12:59:10;;;;;;;15.80;3.37;;;;;;;23.83;56.29;100323.72;1768213;79;21276;-57
2023/05/23 13:02:19;;;;;;;5.72;2.60;;;;;;;23.86;56.39;100326.53;1772036;80;21845;-55
2023/05/23 13:05:26;;;;;;;4.15;2.25;;;;;;;23.93;56.37;100326.61;1768420;80;21205;-55
2023/05/23 13:08:34;;;;;;;5.10;2.80;;;;;;;23.88;56.31;100320.95;1772094;78;21271;-55
2023/05/23 13:11:41;;;;;;;6.67;3.00;;;;;;;23.81;56.32;100318.94;1731760;82;21525;-54
2023/05/23 13:14:49;;;;;;;6.40;3.10;;;;;;;23.84;56.50;100328.20;1771065;80;21745;-53
2023/05/23 13:17:55;;;;;;;7.08;2.60;;;;;;;23.75;56.19;100329.78;1765964;81;21236;-52
2023/05/23 13:21:01;;;;;;;22.00;6.03;;;;;;;23.55;56.04;100337.38;1724926;81;21681;-55
2023/05/23 13:24:08;;;;;;;9.00;3.30;;;;;;;23.31;55.92;100335.09;1770794;80;21527;-55
2023/05/23 13:27:16;;;;;;;5.30;2.60;;;;;;;23.03;55.80;100339.44;1764931;80;21256;-55
2023/05/23 13:30:22;;;;;;;30.80;4.95;;;;;;;22.78;55.89;100344.66;1763573;78;21212;-54
2023/05/23 13:33:29;;;;;;;42.33;7.90;;;;;;;22.53;55.94;100347.06;1759358;79;21239;-55
2023/05/23 13:36:35;;;;;;;20.17;4.83;;;;;;;22.26;56.06;100351.05;1760454;79;21220;-56
2023/05/23 13:39:40;;;;;;;13.10;5.12;;;;;;;21.96;56.11;100363.88;1764451;79;21734;-56
2023/05/23 13:42:47;;;;;;;11.55;4.85;;;;;;;21.73;56.22;100367.28;1763514;80;21765;-58
2023/05/23 13:45:53;;;;;;;11.35;4.97;;;;;;;21.52;56.41;100362.39;1747329;80;21181;-58
2023/05/23 13:49:00;;;;;;;6.87;4.45;;;;;;;21.32;56.59;100367.01;1701900;82;21820;-57
2023/05/23 13:52:06;;;;;;;15.63;8.05;;;;;;;21.19;56.85;100366.41;1753903;80;21251;-55
2023/05/23 13:55:12;;;;;;;12.35;7.03;;;;;;;21.06;57.11;100366.70;1763141;79;21212;-58
2023/05/23 13:58:18;;;;;;;9.30;5.17;;;;;;;20.93;57.32;100359.97;1757481;80;21778;-58
2023/05/23 14:01:24;;;;;;;7.12;4.78;;;;;;;20.81;57.51;100358.57;1753761;80;21840;-57
2023/05/23 14:04:32;;;;;;;12.25;6.15;;;;;;;20.71;57.80;100352.23;1768716;80;21185;-57
2023/05/23 14:07:38;;;;;;;10.98;4.55;;;;;;;20.66;58.19;100350.70;1742567;81;21732;-56
2023/05/23 14:10:46;;;;;;;8.73;4.53;;;;;;;20.63;58.52;100344.77;1740842;80;21216;-57
2023/05/23 14:13:52;;;;;;;11.48;5.97;;;;;;;20.62;58.84;100345.87;1765291;79;21784;-57
2023/05/23 14:16:58;;;;;;;10.95;6.85;;;;;;;20.61;59.12;100339.45;1766848;80;21232;-59
2023/05/23 14:20:05;;;;;;;8.35;5.83;;;;;;;20.57;59.34;100334.09;1767990;80;21256;-57
2023/05/23 14:23:10;;;;;;;9.28;5.37;;;;;;;20.55;59.60;100345.16;1767044;80;21193;-57
2023/05/23 14:26:16;;;;;;;8.40;5.08;;;;;;;20.54;59.90;100344.31;1768100;80;21252;-57
2023/05/23 14:29:21;;;;;;;11.08;4.58;;;;;;;20.54;60.14;100349.02;1734183;81;21220;-58
2023/05/23 14:32:28;;;;;;;7.50;4.62;;;;;;;20.53;60.38;100345.37;1728360;81;21786;-56